Time;durP1;ratioP1;P1;durP2;ratioP2;P2;SDS_P1;SDS_P2;PMS_P1;PMS_P2;Temp;Humidity;BMP_temperature;BMP_pressure;BME280_temperature;BME280_humidity;BME280_pressure;Samples;Min_cycle;Max_cycle;Signal;HPM_P1;HPM_P2
2023/12/06 00:02:04;;;;;;;0.50;0.50;;;0.30;99.90;3.10;96253.00;;;;5085037;28;20904;-68
2023/12/06 00:04:53;;;;;;;0.33;0.33;;;0.30;99.90;3.10;96259.00;;;;5090655;28;20430;-68
2023/12/06 00:07:42;;;;;;;0.50;0.50;;;0.30;99.90;3.10;96257.00;;;;5088854;28;20426;-68
2023/12/06 00:10:32;;;;;;;0.50;0.50;;;0.30;99.90;3.10;96246.00;;;;5088654;28;20425;-68
2023/12/06 00:13:21;;;;;;;0.40;0.40;;;0.30;99.90;3.00;96253.00;;;;5086718;28;20461;-68
2023/12/06 00:16:10;;;;;;;0.40;0.40;;;0.30;99.90;3.00;96249.00;;;;5089556;28;20446;-68
2023/12/06 00:18:59;;;;;;;0.40;0.40;;;0.20;99.90;3.10;96252.00;;;;5084683;28;20425;-69
2023/12/06 00:21:48;;;;;;;0.40;0.40;;;0.20;99.90;3.10;96260.00;;;;5089804;28;20444;-68
2023/12/06 00:24:37;;;;;;;0.30;0.30;;;0.30;99.90;3.10;96251.00;;;;5088033;28;20418;-68
2023/12/06 00:27:27;;;;;;;0.40;0.40;;;0.30;99.90;3.10;96262.00;;;;5088892;28;20834;-68
2023/12/06 00:30:16;;;;;;;0.40;0.40;;;0.30;99.90;3.20;96254.00;;;;5088836;28;20956;-68
2023/12/06 00:33:06;;;;;;;0.47;0.47;;;0.30;99.90;3.10;96267.00;;;;5085596;28;20460;-68
2023/12/06 00:35:56;;;;;;;0.40;0.40;;;0.30;99.90;3.10;96259.00;;;;5083153;28;20862;-68
2023/12/06 00:38:44;;;;;;;0.40;0.40;;;0.30;99.90;3.10;96275.00;;;;5088565;28;20422;-68
2023/12/06 00:41:33;;;;;;;0.40;0.40;;;0.30;99.90;3.10;96268.00;;;;5088274;28;20444;-68
2023/12/06 00:44:24;;;;;;;0.40;0.40;;;0.30;99.90;3.10;96265.00;;;;5088835;28;20434;-68
2023/12/06 00:47:12;;;;;;;0.40;0.40;;;0.30;99.90;3.10;96269.00;;;;5085960;28;20781;-68
2023/12/06 00:50:01;;;;;;;0.40;0.40;;;0.30;99.90;3.10;96273.00;;;;5085400;28;20426;-68
2023/12/06 00:52:50;;;;;;;0.50;0.50;;;0.30;99.90;3.10;96277.00;;;;5088733;28;20444;-68
2023/12/06 00:55:39;;;;;;;0.40;0.40;;;0.30;99.90;3.10;96268.00;;;;5087307;28;20448;-68
2023/12/06 00:58:28;;;;;;;0.47;0.47;;;0.30;99.90;3.10;96284.00;;;;5086300;28;20437;-69
2023/12/06 01:01:18;;;;;;;0.50;0.50;;;0.30;99.90;3.10;96286.00;;;;5088589;28;20433;-68
2023/12/06 01:04:07;;;;;;;0.30;0.30;;;0.30;99.90;3.20;96287.00;;;;5084756;28;20418;-68
2023/12/06 01:06:56;;;;;;;0.40;0.40;;;0.30;99.90;3.10;96286.00;;;;5089202;28;20454;-68
2023/12/06 01:09:45;;;;;;;0.50;0.50;;;0.30;99.90;2.90;96287.00;;;;5087806;28;20421;-67
2023/12/06 01:12:35;;;;;;;0.50;0.50;;;0.30;99.90;2.70;96286.00;;;;5086593;28;20465;-68
2023/12/06 01:15:24;;;;;;;0.40;0.40;;;0.20;99.90;2.50;96300.00;;;;5088007;28;21236;-68
2023/12/06 01:18:14;;;;;;;0.40;0.40;;;0.20;99.90;2.50;96285.00;;;;5085790;28;20437;-68
2023/12/06 01:21:03;;;;;;;0.40;0.40;;;0.20;99.90;2.80;96290.00;;;;5088933;28;20437;-68
2023/12/06 01:23:52;;;;;;;0.50;0.50;;;0.20;99.90;3.00;96292.00;;;;5083765;28;20418;-68
2023/12/06 01:26:41;;;;;;;0.40;0.40;;;0.20;99.90;2.90;96306.00;;;;5086909;28;20434;-68
2023/12/06 01:29:30;;;;;;;0.50;0.50;;;0.20;99.90;3.10;96302.00;;;;5088263;28;20428;-68
2023/12/06 01:32:19;;;;;;;0.40;0.40;;;0.20;99.90;3.10;96306.00;;;;5087953;28;20425;-68
2023/12/06 01:35:09;;;;;;;0.50;0.50;;;0.20;99.90;3.20;96315.00;;;;5083675;28;20998;-68
2023/12/06 01:37:58;;;;;;;0.30;0.30;;;0.20;99.90;3.10;96309.00;;;;5083473;28;20441;-68
2023/12/06 01:40:47;;;;;;;0.50;0.50;;;0.30;99.90;3.20;96302.00;;;;5087963;28;20421;-68
2023/12/06 01:43:36;;;;;;;0.40;0.40;;;0.30;99.90;3.20;96304.00;;;;5086251;28;20820;-68
2023/12/06 01:46:26;;;;;;;0.50;0.50;;;0.30;99.90;3.10;96307.00;;;;5086846;28;20456;-68
2023/12/06 01:49:15;;;;;;;0.40;0.40;;;0.30;99.90;3.10;96302.00;;;;5088611;28;20437;-68
2023/12/06 01:52:06;;;;;;;0.40;0.40;;;0.30;99.90;3.20;96310.00;;;;5087092;28;20433;-68
2023/12/06 01:54:58;;;;;;;0.40;0.40;;;0.30;99.90;3.20;96298.00;;;;5087928;28;20468;-68
2023/12/06 01:57:47;;;;;;;0.50;0.50;;;0.30;99.90;3.10;96298.00;;;;5088124;28;20418;-68
2023/12/06 02:00:36;;;;;;;0.50;0.50;;;0.30;99.90;3.20;96300.00;;;;5087210;28;20430;-68
2023/12/06 02:03:25;;;;;;;0.40;0.40;;;0.30;99.90;3.10;96293.00;;;;5087171;28;20433;-68
2023/12/06 02:06:14;;;;;;;0.57;0.57;;;0.30;99.90;3.10;96300.00;;;;5087792;28;20962;-68
2023/12/06 02:09:05;;;;;;;0.60;0.60;;;0.30;99.90;3.10;96310.00;;;;5082877;28;20432;-68
2023/12/06 02:11:54;;;;;;;0.40;0.40;;;0.40;99.90;3.20;96303.00;;;;5087573;28;20425;-69
2023/12/06 02:14:43;;;;;;;0.50;0.50;;;0.30;99.90;3.20;96298.00;;;;5086622;28;20465;-67
2023/12/06 02:17:33;;;;;;;0.40;0.40;;;0.30;99.90;3.20;96297.00;;;;5086458;28;20434;-69
2023/12/06 02:20:22;;;;;;;0.33;0.33;;;0.30;99.90;3.20;96307.00;;;;5087527;28;20433;-68
2023/12/06 02:23:14;;;;;;;0.40;0.40;;;0.40;99.90;3.10;96299.00;;;;5084590;28;20434;-68
2023/12/06 02:26:05;;;;;;;0.30;0.30;;;0.30;99.90;3.20;96305.00;;;;5083014;28;20993;-68
2023/12/06 02:28:55;;;;;;;0.30;0.30;;;0.30;99.90;3.10;96300.00;;;;5080004;28;20429;-68
2023/12/06 02:31:44;;;;;;;0.40;0.40;;;0.30;99.90;3.10;96302.00;;;;5086526;28;20429;-68
2023/12/06 02:34:34;;;;;;;0.40;0.40;;;0.30;99.90;3.10;96300.00;;;;5085011;28;20465;-68
2023/12/06 02:37:24;;;;;;;0.50;0.50;;;0.30;99.90;3.00;96295.00;;;;5083782;28;20433;-67
2023/12/06 02:40:15;;;;;;;0.30;0.30;;;0.30;99.90;3.10;96298.00;;;;5087612;28;20430;-67
2023/12/06 02:43:05;;;;;;;0.40;0.40;;;0.30;99.90;3.20;96296.00;;;;5086356;28;20437;-68
2023/12/06 02:45:54;;;;;;;0.40;0.40;;;0.30;99.90;3.20;96292.00;;;;5087412;28;20452;-68
2023/12/06 02:48:43;;;;;;;0.40;0.40;;;0.30;99.90;3.20;96301.00;;;;5086637;28;21025;-68
2023/12/06 02:51:32;;;;;;;0.50;0.50;;;0.30;99.90;3.20;96287.00;;;;5084753;28;20486;-68
2023/12/06 02:54:21;;;;;;;0.40;0.40;;;0.30;99.90;3.10;96292.00;;;;5087031;28;20468;-68
2023/12/06 02:57:10;;;;;;;0.43;0.43;;;0.30;99.90;3.20;96294.00;;;;5083578;28;20414;-68
2023/12/06 03:00:00;;;;;;;0.60;0.60;;;0.30;99.90;3.10;96296.00;;;;5084614;28;21034;-68
2023/12/06 03:02:49;;;;;;;0.30;0.30;;;0.30;99.90;3.10;96294.00;;;;5087524;28;20833;-68
2023/12/06 03:05:38;;;;;;;0.37;0.37;;;0.30;99.90;3.20;96289.00;;;;5085871;28;20449;-68
2023/12/06 03:08:27;;;;;;;0.40;0.40;;;0.30;99.90;3.20;96299.00;;;;5083694;28;20422;-69
2023/12/06 03:11:16;;;;;;;0.40;0.40;;;0.30;99.90;3.20;96301.00;;;;5086759;28;20438;-68
2023/12/06 03:14:05;;;;;;;0.43;0.43;;;0.30;99.90;3.20;96298.00;;;;5089934;28;20422;-68
2023/12/06 03:16:55;;;;;;;0.40;0.40;;;0.30;99.90;3.10;96295.00;;;;5091467;28;20452;-68
2023/12/06 03:19:44;;;;;;;0.40;0.40;;;0.30;99.90;3.20;96291.00;;;;5090178;28;20429;-68
2023/12/06 03:22:33;;;;;;;0.50;0.50;;;0.30;99.90;3.20;96299.00;;;;5089222;28;20432;-68
2023/12/06 03:25:22;;;;;;;0.40;0.40;;;0.30;99.90;3.20;96298.00;;;;5091485;28;20440;-68
2023/12/06 03:28:11;;;;;;;0.40;0.40;;;0.30;99.90;3.20;96294.00;;;;5090224;28;20426;-68
2023/12/06 03:31:01;;;;;;;0.40;0.40;;;0.20;99.90;3.10;96289.00;;;;5085810;28;20778;-68
2023/12/06 03:33:52;;;;;;;0.50;0.50;;;0.30;99.90;3.10;96292.00;;;;5088863;28;20433;-68
2023/12/06 03:36:40;;;;;;;0.50;0.50;;;0.30;99.90;3.10;96290.00;;;;5089491;28;20441;-68
2023/12/06 03:39:29;;;;;;;0.40;0.40;;;0.20;99.90;2.90;96276.00;;;;5090597;28;20457;-69
2023/12/06 03:42:18;;;;;;;0.50;0.50;;;0.20;99.90;2.90;96281.00;;;;5088283;28;20418;-69
2023/12/06 03:45:09;;;;;;;0.40;0.40;;;0.20;99.90;2.80;96279.00;;;;5087270;28;20454;-68
2023/12/06 03:47:58;;;;;;;0.40;0.40;;;0.20;99.90;2.70;96274.00;;;;5085670;28;20421;-68
2023/12/06 03:50:48;;;;;;;0.50;0.50;;;0.20;99.90;2.90;96281.00;;;;5089276;28;20812;-68
2023/12/06 03:53:38;;;;;;;0.40;0.40;;;0.10;99.90;2.60;96277.00;;;;5089006;28;20445;-68
2023/12/06 03:56:26;;;;;;;0.30;0.30;;;0.10;99.90;2.40;96273.00;;;;5089675;28;20477;-68
2023/12/06 03:59:15;;;;;;;0.40;0.40;;;0.10;99.90;2.30;96271.00;;;;5090011;28;20433;-68
2023/12/06 04:02:04;;;;;;;0.50;0.50;;;0.00;99.90;2.10;96273.00;;;;5089351;28;20437;-68
2023/12/06 04:04:53;;;;;;;0.40;0.40;;;-0.10;99.90;2.20;96275.00;;;;5089890;28;20418;-68
2023/12/06 04:07:43;;;;;;;0.33;0.33;;;-0.20;99.90;2.20;96273.00;;;;5089062;28;20426;-68
2023/12/06 04:10:32;;;;;;;0.50;0.50;;;-0.20;99.90;2.10;96278.00;;;;5087504;28;20820;-68
2023/12/06 04:13:21;;;;;;;0.40;0.40;;;-0.30;99.90;2.10;96287.00;;;;5087009;28;20436;-68
2023/12/06 04:16:10;;;;;;;0.40;0.40;;;-0.30;99.90;2.00;96285.00;;;;5088090;28;20489;-69
2023/12/06 04:18:59;;;;;;;0.40;0.40;;;-0.30;99.90;2.00;96285.00;;;;5090018;28;20418;-67
2023/12/06 04:21:48;;;;;;;0.50;0.50;;;-0.40;99.90;1.80;96278.00;;;;5088408;28;20803;-68
2023/12/06 04:24:39;;;;;;;0.50;0.50;;;-0.40;99.90;1.70;96277.00;;;;5087230;28;20434;-67
2023/12/06 04:27:28;;;;;;;0.50;0.50;;;-0.50;99.90;1.70;96273.00;;;;5089584;28;20448;-68
2023/12/06 04:30:17;;;;;;;0.40;0.40;;;-0.60;99.90;1.70;96279.00;;;;5088748;28;20433;-68
2023/12/06 04:33:06;;;;;;;0.50;0.50;;;-0.60;99.90;2.00;96284.00;;;;5086346;28;20414;-68
2023/12/06 04:35:55;;;;;;;0.50;0.50;;;-0.60;99.90;2.10;96274.00;;;;5082204;28;20464;-68
2023/12/06 04:38:44;;;;;;;0.30;0.30;;;-0.60;99.90;1.90;96277.00;;;;5087969;28;20418;-68
2023/12/06 04:41:34;;;;;;;0.40;0.40;;;-0.60;99.90;1.90;96277.00;;;;5088830;28;20434;-68
2023/12/06 04:44:23;;;;;;;0.50;0.50;;;-0.60;99.90;1.90;96277.00;;;;5089579;28;20422;-68
2023/12/06 04:47:12;;;;;;;0.37;0.37;;;-0.60;99.90;1.70;96272.00;;;;5086245;28;20425;-68
2023/12/06 04:50:01;;;;;;;0.50;0.50;;;-0.60;99.90;1.70;96278.00;;;;5086838;28;20425;-68
2023/12/06 04:52:49;;;;;;;0.47;0.47;;;-0.70;99.90;1.90;96283.00;;;;5088247;28;20456;-69
2023/12/06 04:55:38;;;;;;;0.60;0.60;;;-0.70;99.90;2.10;96284.00;;;;5086966;28;20470;-68
2023/12/06 04:58:28;;;;;;;0.50;0.50;;;-0.70;99.90;2.20;96284.00;;;;5087712;28;20426;-68
2023/12/06 05:01:17;;;;;;;0.50;0.50;;;-0.60;99.90;2.20;96288.00;;;;5088996;28;20452;-67
2023/12/06 05:04:06;;;;;;;0.50;0.50;;;-0.60;99.90;2.00;96296.00;;;;5088475;28;20426;-67
2023/12/06 05:06:55;;;;;;;0.40;0.40;;;-0.60;99.90;2.20;96295.00;;;;5083369;28;20441;-67
2023/12/06 05:09:44;;;;;;;0.50;0.50;;;-0.60;99.90;2.20;96287.00;;;;5088141;28;20428;-67
2023/12/06 05:12:33;;;;;;;0.50;0.50;;;-0.60;99.90;2.20;96281.00;;;;5086128;28;20452;-68
2023/12/06 05:15:23;;;;;;;0.40;0.40;;;-0.50;99.90;1.90;96285.00;;;;5088466;28;20821;-67
2023/12/06 05:18:12;;;;;;;0.30;0.30;;;-0.50;99.90;1.80;96287.00;;;;5087261;28;20430;-70
2023/12/06 05:21:01;;;;;;;0.40;0.40;;;-0.60;99.90;1.50;96282.00;;;;5081454;28;20972;-70
2023/12/06 05:23:50;;;;;;;0.33;0.33;;;-0.60;99.90;1.60;96287.00;;;;5087547;28;20422;-70
2023/12/06 05:26:39;;;;;;;0.50;0.50;;;-0.70;99.90;1.80;96289.00;;;;5085152;28;20819;-70
2023/12/06 05:29:28;;;;;;;0.63;0.63;;;-0.70;99.90;1.50;96282.00;;;;5083180;28;20511;-70
2023/12/06 05:32:18;;;;;;;0.50;0.50;;;-0.80;99.90;1.70;96284.00;;;;5085092;28;20437;-70
2023/12/06 05:35:08;;;;;;;0.40;0.40;;;-0.80;99.90;2.00;96283.00;;;;5084824;28;20465;-70
2023/12/06 05:37:57;;;;;;;0.57;0.57;;;-0.70;99.90;1.90;96280.00;;;;5080838;28;20951;-70
2023/12/06 05:40:46;;;;;;;0.53;0.53;;;-0.70;99.90;1.70;96277.00;;;;5087075;28;20426;-70
2023/12/06 05:43:35;;;;;;;0.40;0.40;;;-0.70;99.90;1.20;96278.00;;;;5087656;28;20441;-69
2023/12/06 05:46:23;;;;;;;0.47;0.47;;;-0.80;99.90;0.90;96274.00;;;;5087609;28;20449;-70
2023/12/06 05:49:16;;;;;;;0.60;0.60;;;-0.90;99.90;1.00;96277.00;;;;5085221;28;20956;-70
2023/12/06 05:52:06;;;;;;;0.50;0.50;;;-1.00;99.90;1.30;96282.00;;;;5086506;28;20491;-70
2023/12/06 05:54:54;;;;;;;0.43;0.43;;;-0.90;99.90;1.20;96280.00;;;;5082702;28;20442;-70
2023/12/06 05:57:45;;;;;;;0.40;0.40;;;-0.90;99.90;1.90;96285.00;;;;5080670;28;20504;-70
2023/12/06 06:00:34;;;;;;;0.60;0.60;;;-0.90;99.90;2.00;96279.00;;;;5084428;28;20426;-70
2023/12/06 06:03:23;;;;;;;0.47;0.47;;;-0.80;99.90;1.60;96279.00;;;;5088042;28;20965;-70
2023/12/06 06:06:13;;;;;;;0.50;0.50;;;-0.80;99.90;1.70;96280.00;;;;5086935;28;20452;-71
2023/12/06 06:09:02;;;;;;;0.50;0.50;;;-0.80;99.90;1.10;96281.00;;;;5088201;28;20424;-70
2023/12/06 06:11:51;;;;;;;0.43;0.43;;;-0.90;99.90;1.10;96286.00;;;;5086919;28;20915;-70
2023/12/06 06:14:40;;;;;;;0.40;0.40;;;-1.00;99.90;1.50;96289.00;;;;5085773;28;20810;-70
2023/12/06 06:17:28;;;;;;;0.57;0.57;;;-0.90;99.90;1.80;96284.00;;;;5086700;28;20480;-71
2023/12/06 06:20:17;;;;;;;0.57;0.57;;;-0.90;99.90;1.80;96285.00;;;;5087794;28;20817;-71
2023/12/06 06:23:08;;;;;;;0.50;0.50;;;-0.80;99.90;1.70;96288.00;;;;5083261;28;20425;-70
2023/12/06 06:25:56;;;;;;;0.50;0.50;;;-0.80;99.90;1.50;96286.00;;;;5086734;28;20450;-70
2023/12/06 06:28:45;;;;;;;0.50;0.50;;;-0.80;99.90;1.60;96292.00;;;;5086559;28;20430;-71
2023/12/06 06:31:34;;;;;;;0.50;0.50;;;-0.80;99.90;1.20;96300.00;;;;5078470;28;20456;-70
2023/12/06 06:34:23;;;;;;;0.60;0.60;;;-0.90;99.90;1.30;96298.00;;;;5083838;28;20946;-70
2023/12/06 06:37:12;;;;;;;0.40;0.40;;;-0.90;99.90;1.30;96298.00;;;;5084489;28;20464;-69
2023/12/06 06:40:07;;;;;;;0.40;0.40;;;-0.90;99.90;1.60;96293.00;;;;5084815;28;20444;-70
2023/12/06 06:42:56;;;;;;;0.40;0.40;;;-0.90;99.90;1.70;96301.00;;;;5080396;28;20859;-70
2023/12/06 06:45:44;;;;;;;0.50;0.50;;;-0.80;99.90;1.50;96307.00;;;;5083188;28;20511;-69
2023/12/06 06:48:33;;;;;;;0.40;0.40;;;-0.90;99.90;1.30;96309.00;;;;5087231;28;20468;-70
2023/12/06 06:51:32;;;;;;;0.60;0.60;;;-0.90;99.90;1.40;96314.00;;;;5088596;28;20939;-69
2023/12/06 06:54:21;;;;;;;0.40;0.40;;;-0.90;99.90;1.90;96325.00;;;;5089964;28;20422;-70
2023/12/06 06:57:11;;;;;;;0.40;0.40;;;-0.80;99.90;2.00;96328.00;;;;5086470;28;20508;-70
2023/12/06 07:00:00;;;;;;;0.50;0.50;;;-0.80;99.90;2.20;96320.00;;;;5077881;28;20446;-69
2023/12/06 07:02:49;;;;;;;0.50;0.50;;;-0.70;99.90;2.10;96324.00;;;;5089514;28;20435;-69
2023/12/06 07:05:38;;;;;;;0.43;0.43;;;-0.60;99.90;1.80;96333.00;;;;5084318;28;20454;-70
2023/12/06 07:08:27;;;;;;;0.40;0.40;;;-0.60;99.90;1.70;96325.00;;;;5084711;28;20429;-69
2023/12/06 07:11:16;;;;;;;0.50;0.50;;;-0.70;99.90;2.10;96335.00;;;;5089965;28;20426;-70
2023/12/06 07:14:07;;;;;;;0.50;0.50;;;-0.60;99.90;2.40;96329.00;;;;5090878;28;20446;-70
2023/12/06 07:16:56;;;;;;;0.50;0.50;;;-0.50;99.90;2.10;96333.00;;;;5090790;28;20480;-71
2023/12/06 07:19:45;;;;;;;0.50;0.50;;;-0.50;99.90;2.20;96325.00;;;;5087094;28;20433;-69
2023/12/06 07:22:34;;;;;;;0.40;0.40;;;-0.50;99.90;2.20;96326.00;;;;5089363;28;21011;-69
2023/12/06 07:25:23;;;;;;;0.50;0.50;;;-0.40;99.90;2.00;96332.00;;;;5087223;28;20443;-69
2023/12/06 07:28:12;;;;;;;0.47;0.47;;;-0.40;99.90;2.10;96326.00;;;;5087630;28;20421;-70
2023/12/06 07:31:02;;;;;;;0.40;0.40;;;-0.40;99.90;2.40;96333.00;;;;5083757;28;20449;-69
2023/12/06 07:33:51;;;;;;;0.40;0.40;;;-0.40;99.90;2.10;96330.00;;;;5087229;28;20448;-70
2023/12/06 07:36:43;;;;;;;0.50;0.50;;;-0.40;99.90;1.60;96326.00;;;;5083750;28;20838;-69
2023/12/06 07:39:32;;;;;;;0.43;0.43;;;-0.40;99.90;2.00;96337.00;;;;5089587;28;20426;-69
2023/12/06 07:42:21;;;;;;;0.53;0.53;;;-0.40;99.90;1.90;96331.00;;;;5087545;28;20444;-69
2023/12/06 07:45:11;;;;;;;0.50;0.50;;;-0.40;99.90;2.00;96336.00;;;;5085205;28;20820;-69
2023/12/06 07:48:02;;;;;;;0.50;0.50;;;-0.40;99.90;2.00;96335.00;;;;5083741;28;20433;-70
2023/12/06 07:50:53;;;;;;;0.40;0.40;;;-0.40;99.90;2.60;96339.00;;;;5086066;28;20438;-70
2023/12/06 07:53:42;;;;;;;0.60;0.60;;;-0.20;99.90;2.50;96338.00;;;;5087416;28;20441;-70
2023/12/06 07:56:33;;;;;;;0.43;0.43;;;-0.10;99.90;2.60;96344.00;;;;5089193;28;20457;-70
2023/12/06 07:59:22;;;;;;;0.50;0.50;;;-0.10;99.90;2.30;96333.00;;;;5086502;28;20938;-70
2023/12/06 08:02:12;;;;;;;0.43;0.43;;;-0.10;99.90;2.60;96351.00;;;;5088882;28;20425;-70
2023/12/06 08:05:04;;;;;;;0.50;0.50;;;0.00;99.90;2.60;96347.00;;;;5087720;28;20464;-70
2023/12/06 08:07:53;;;;;;;0.53;0.53;;;0.00;99.90;3.10;96341.00;;;;5083899;28;20455;-70
2023/12/06 08:10:43;;;;;;;0.50;0.50;;;0.10;99.90;3.50;96353.00;;;;5089591;28;20422;-70
2023/12/06 08:13:32;;;;;;;0.47;0.47;;;0.30;99.90;3.30;96351.00;;;;5087618;28;20421;-69
2023/12/06 08:16:21;;;;;;;0.50;0.50;;;0.40;99.90;3.30;96349.00;;;;5088906;28;20848;-70
2023/12/06 08:19:10;;;;;;;0.47;0.47;;;0.40;99.90;3.30;96355.00;;;;5085786;28;20432;-70
2023/12/06 08:22:00;;;;;;;0.50;0.50;;;0.50;99.90;3.00;96343.00;;;;5085071;28;20456;-70
2023/12/06 08:24:50;;;;;;;0.40;0.40;;;0.50;99.90;3.30;96351.00;;;;5088913;28;20870;-70
2023/12/06 08:27:39;;;;;;;0.50;0.50;;;0.50;99.90;3.50;96360.00;;;;5086981;28;20425;-70
2023/12/06 08:30:28;;;;;;;0.40;0.40;;;0.60;99.90;3.50;96363.00;;;;5089213;28;20801;-70
2023/12/06 08:33:19;;;;;;;0.50;0.50;;;0.70;99.90;3.80;96366.00;;;;5085439;28;20436;-70
2023/12/06 08:36:08;;;;;;;0.40;0.40;;;0.80;99.90;3.80;96365.00;;;;5082531;28;20441;-70
2023/12/06 08:38:59;;;;;;;0.53;0.53;;;0.80;99.90;4.20;96370.00;;;;5084614;28;20458;-70
2023/12/06 08:41:47;;;;;;;0.47;0.47;;;1.00;99.90;4.30;96363.00;;;;5086908;28;20430;-70
2023/12/06 08:44:36;;;;;;;0.50;0.50;;;1.10;99.90;4.00;96364.00;;;;5088544;28;20437;-69
2023/12/06 08:47:25;;;;;;;0.43;0.43;;;1.20;99.90;4.40;96365.00;;;;5088657;28;21331;-70
2023/12/06 08:50:14;;;;;;;0.43;0.43;;;1.30;99.90;4.10;96367.00;;;;5087764;28;20429;-69
2023/12/06 08:53:03;;;;;;;0.40;0.40;;;1.30;99.90;3.90;96365.00;;;;5089387;28;20430;-70
2023/12/06 08:55:54;;;;;;;0.40;0.40;;;1.40;99.90;3.90;96362.00;;;;5088146;28;20442;-69
2023/12/06 08:58:43;;;;;;;0.40;0.40;;;1.30;99.90;3.70;96360.00;;;;5082330;28;20454;-69
2023/12/06 09:01:32;;;;;;;0.57;0.57;;;1.30;99.90;3.70;96375.00;;;;5080473;28;20452;-70
2023/12/06 09:04:21;;;;;;;0.43;0.43;;;1.20;99.90;4.20;96371.00;;;;5084860;28;20433;-69
2023/12/06 09:07:10;;;;;;;0.47;0.47;;;1.30;99.90;4.50;96370.00;;;;5084542;28;20470;-69
2023/12/06 09:09:58;;;;;;;0.30;0.30;;;2.90;99.90;5.00;96377.00;;;;5086986;28;20418;-69
2023/12/06 09:12:49;;;;;;;0.40;0.40;;;1.50;99.90;4.80;96376.00;;;;5086718;28;20440;-69
2023/12/06 09:15:38;;;;;;;0.70;0.70;;;1.60;99.90;4.70;96384.00;;;;5082114;28;20452;-70
2023/12/06 09:18:27;;;;;;;0.40;0.40;;;1.70;99.90;4.60;96381.00;;;;5088009;28;20466;-69
2023/12/06 09:21:16;;;;;;;0.40;0.40;;;1.70;99.90;4.50;96372.00;;;;5084803;28;20545;-69
2023/12/06 09:24:06;;;;;;;0.47;0.47;;;1.80;99.90;4.80;96380.00;;;;5084752;28;20433;-68
2023/12/06 09:26:55;;;;;;;0.40;0.40;;;1.80;99.90;4.90;96378.00;;;;5086735;28;20433;-69
2023/12/06 09:29:45;;;;;;;0.40;0.40;;;1.80;99.90;4.90;96384.00;;;;5084824;28;20433;-68
2023/12/06 09:32:34;;;;;;;0.57;0.57;;;1.90;99.90;5.00;96380.00;;;;5084775;28;20200;-70
2023/12/06 09:35:24;;;;;;;0.60;0.60;;;2.00;99.90;5.20;96378.00;;;;5088010;28;20242;-69
2023/12/06 09:38:13;;;;;;;0.50;0.50;;;2.10;99.90;5.10;96378.00;;;;5081308;28;20449;-69
2023/12/06 09:41:05;;;;;;;0.43;0.43;;;2.10;99.90;4.90;96372.00;;;;5086504;28;20218;-69
2023/12/06 09:43:54;;;;;;;0.50;0.50;;;2.10;99.90;5.20;96368.00;;;;5085526;28;20684;-69
2023/12/06 09:46:44;;;;;;;;;;;2.10;99.90;5.20;96368.00;;;;5085384;28;19927;-70
2023/12/06 09:49:33;;;;;;;;;;;2.20;99.90;5.10;96370.00;;;;5081818;28;19954;-69
2023/12/06 09:52:23;;;;;;;0.40;0.40;;;2.20;99.90;5.30;96380.00;;;;5087071;28;19920;-69
2023/12/06 09:55:13;;;;;;;0.40;0.40;;;2.30;99.90;5.30;96363.00;;;;5083310;28;20219;-71
2023/12/06 09:58:02;;;;;;;0.40;0.40;;;2.30;99.90;5.40;96361.00;;;;5086962;28;20688;-68
2023/12/06 10:00:51;;;;;;;0.43;0.43;;;2.40;99.90;5.60;96362.00;;;;5086447;28;20214;-69
2023/12/06 10:03:41;;;;;;;0.40;0.40;;;2.40;99.90;5.50;96361.00;;;;5085600;28;20203;-68
2023/12/06 10:06:31;;;;;;;0.40;0.40;;;2.50;99.90;5.80;96358.00;;;;5088005;28;20072;-68
2023/12/06 10:09:20;;;;;;;0.40;0.40;;;2.90;99.90;5.80;96357.00;;;;5085820;28;20230;-68
2023/12/06 10:12:10;;;;;;;0.50;0.50;;;2.70;99.90;5.80;96354.00;;;;5086675;28;20199;-69
2023/12/06 10:14:59;;;;;;;0.40;0.40;;;2.70;99.90;5.70;96366.00;;;;5078635;28;20211;-69
2023/12/06 10:17:49;;;;;;;0.40;0.40;;;2.70;99.90;5.70;96360.00;;;;5083336;28;20692;-68
2023/12/06 10:20:40;;;;;;;0.50;0.50;;;2.80;99.90;5.80;96354.00;;;;5086121;28;20199;-68
2023/12/06 10:23:30;;;;;;;0.47;0.47;;;2.80;99.90;6.10;96364.00;;;;5088076;28;20214;-68
2023/12/06 10:26:19;;;;;;;0.40;0.40;;;2.80;99.90;6.10;96364.00;;;;5086578;28;20276;-69
2023/12/06 10:29:08;;;;;;;0.40;0.40;;;2.90;99.90;6.20;96366.00;;;;5086004;28;20644;-68
2023/12/06 10:31:57;;;;;;;0.40;0.40;;;2.90;99.90;6.20;96362.00;;;;5089056;28;20199;-68
2023/12/06 10:34:48;;;;;;;0.50;0.50;;;3.00;99.90;6.40;96366.00;;;;5088273;28;20195;-68
2023/12/06 10:37:39;;;;;;;0.40;0.40;;;3.10;99.90;6.20;96360.00;;;;5088624;28;20235;-68
2023/12/06 10:40:29;;;;;;;0.30;0.30;;;3.10;99.90;6.50;96364.00;;;;5087086;28;20539;-68
2023/12/06 10:43:19;;;;;;;0.40;0.40;;;3.10;99.90;6.50;96361.00;;;;5086108;28;20292;-68
2023/12/06 10:46:10;;;;;;;0.40;0.40;;;3.10;99.90;6.50;96361.00;;;;5085467;28;20581;-68
2023/12/06 10:49:00;;;;;;;;;;;3.20;99.90;6.40;96360.00;;;;5088720;28;20199;-69
2023/12/06 10:51:50;;;;;;;0.40;0.40;;;3.20;99.90;6.30;96350.00;;;;5089622;28;20747;-68
2023/12/06 10:54:43;;;;;;;0.50;0.50;;;3.20;99.90;6.40;96351.00;;;;5088360;28;20206;-68
2023/12/06 10:57:32;;;;;;;0.40;0.40;;;3.20;99.90;6.40;96351.00;;;;5090832;28;20205;-68
2023/12/06 11:00:22;;;;;;;0.47;0.47;;;3.20;99.90;6.40;96360.00;;;;5085957;28;20211;-68
2023/12/06 11:03:11;;;;;;;;;;;3.30;99.90;6.50;96361.00;;;;5086232;28;20134;-68
2023/12/06 11:06:11;;;;;;;0.40;0.40;;;3.30;99.90;6.50;96355.00;;;;5086509;28;20374;-68
2023/12/06 11:09:16;;;;;;;0.50;0.50;;;3.30;99.90;6.20;96345.00;;;;5087630;28;20199;-69
2023/12/06 11:12:14;;;;;;;;;;;3.30;99.90;6.20;96344.00;;;;5082509;28;20507;-68
2023/12/06 11:15:23;;;;;;;0.35;0.35;;;3.30;99.90;6.50;96343.00;;;;5088634;28;19965;-68
2023/12/06 11:18:13;;;;;;;;;;;3.30;99.90;6.40;96342.00;;;;5088506;28;19923;-66
2023/12/06 11:21:04;;;;;;;0.40;0.40;;;3.30;99.90;6.40;96333.00;;;;5086435;28;19924;-67
2023/12/06 11:23:54;;;;;;;0.40;0.40;;;3.20;99.90;6.50;96332.00;;;;5090131;28;20211;-67
2023/12/06 11:26:43;;;;;;;0.50;0.50;;;3.20;99.90;6.50;96338.00;;;;5088236;28;20213;-67
2023/12/06 11:29:34;;;;;;;0.30;0.30;;;3.30;99.90;6.30;96326.00;;;;5089657;28;20199;-66
2023/12/06 11:32:22;;;;;;;0.40;0.40;;;3.30;99.90;6.30;96328.00;;;;5090089;28;20635;-67
2023/12/06 11:35:12;;;;;;;0.40;0.40;;;3.20;99.90;6.10;96325.00;;;;5086466;28;20227;-67
2023/12/06 11:38:02;;;;;;;0.40;0.40;;;3.20;99.90;5.70;96328.00;;;;5090679;28;20199;-66
2023/12/06 11:40:53;;;;;;;0.37;0.37;;;3.20;99.90;5.80;96327.00;;;;5087738;28;20409;-67
2023/12/06 11:43:49;;;;;;;0.43;0.43;;;3.10;99.90;5.80;96318.00;;;;5085540;28;20206;-67
2023/12/06 11:46:39;;;;;;;0.60;0.60;;;3.00;99.90;6.00;96317.00;;;;5087508;28;20237;-67
2023/12/06 11:49:28;;;;;;;0.30;0.30;;;3.00;99.90;6.10;96317.00;;;;5089421;28;20196;-67
2023/12/06 11:52:18;;;;;;;0.50;0.50;;;3.10;99.90;5.70;96320.00;;;;5086310;28;20211;-67
2023/12/06 11:55:07;;;;;;;0.40;0.40;;;3.00;99.90;5.70;96324.00;;;;5085158;28;20231;-67
2023/12/06 11:58:07;;;;;;;0.50;0.50;;;3.00;99.90;6.00;96317.00;;;;5088339;28;20668;-66
2023/12/06 12:00:56;;;;;;;0.40;0.40;;;2.90;99.90;6.10;96327.00;;;;5088894;28;20207;-66
2023/12/06 12:03:48;;;;;;;0.40;0.40;;;2.90;99.90;6.10;96320.00;;;;5087095;28;20207;-67
2023/12/06 12:06:37;;;;;;;0.60;0.60;;;3.00;99.90;6.30;96326.00;;;;5087968;28;20234;-66
2023/12/06 12:09:29;;;;;;;0.40;0.40;;;3.00;99.90;6.20;96317.00;;;;5086220;28;20199;-66
2023/12/06 12:12:18;;;;;;;0.40;0.40;;;3.00;99.90;6.30;96314.00;;;;5089205;28;20256;-67
2023/12/06 12:15:08;;;;;;;0.40;0.40;;;3.00;99.90;6.10;96310.00;;;;5090153;28;20226;-66
2023/12/06 12:17:58;;;;;;;0.50;0.50;;;3.00;99.90;6.00;96302.00;;;;5089048;28;20202;-66
2023/12/06 12:20:48;;;;;;;0.50;0.50;;;3.00;99.90;6.00;96306.00;;;;5087743;28;20226;-66
2023/12/06 12:23:37;;;;;;;0.43;0.43;;;2.90;99.90;6.00;96298.00;;;;5088249;28;20203;-66
2023/12/06 12:26:26;;;;;;;0.30;0.30;;;2.90;99.90;6.00;96304.00;;;;5088786;28;20227;-67
2023/12/06 12:29:18;;;;;;;0.50;0.50;;;2.90;99.90;6.20;96310.00;;;;5088667;28;20206;-66
2023/12/06 12:32:07;;;;;;;0.40;0.40;;;2.90;99.90;6.10;96300.00;;;;5085239;28;20207;-67
2023/12/06 12:34:56;;;;;;;0.40;0.40;;;2.90;99.90;6.10;96305.00;;;;5088799;28;20199;-67
2023/12/06 12:37:47;;;;;;;0.50;0.50;;;2.90;99.90;5.70;96298.00;;;;5087379;28;20203;-66
2023/12/06 12:40:36;;;;;;;;;;;2.90;99.90;6.00;96293.00;;;;5085193;28;20215;-67
2023/12/06 12:43:25;;;;;;;0.40;0.40;;;2.90;99.90;6.10;96291.00;;;;5089037;28;20072;-66
2023/12/06 12:46:14;;;;;;;0.40;0.40;;;2.90;99.90;6.30;96301.00;;;;5085211;28;20194;-66
2023/12/06 12:49:03;;;;;;;0.30;0.30;;;3.00;99.90;6.30;96297.00;;;;5088956;28;20116;-67
2023/12/06 12:51:51;;;;;;;0.50;0.50;;;3.00;99.90;5.90;96296.00;;;;5089893;28;20051;-66